RAM811 EDDF-GMMN
Flight info
| Callsign | RAM811 |
|---|---|
| Flight time | N/A |
| Altitude | 37000 |
| Route | ANEKI2L/18 ANEKI Y163 HERBI Y164 MOPAN DCT LUTIX DCT BENOT DCT NEMOS DCT NINTU DCT REPSI DCT LERGA DCT MINSO DCT NARAK DCT AGN DCT MAQAB DCT TIVLI N869 GALTO UB11 TUSOR |
| Aircraft | B38M/M-SDE1FGHILORVWXY/HB1 |
Departure
| Time | 2026-05-01 12:32 |
|---|---|
| Airport | Frankfurt Main Airport (EDDF) |
Arrival
| Time | N/A |
|---|---|
| Airport | Mohammed V International Airport (GMMN) |
| Time | Latitude | Longitude | Altitude | Speed | Heading |
|---|---|---|---|---|---|
| 2026-05-01 11:53 | 50.04927 | 8.58943 | 365 ft | 0 kts | 160° |
| 2026-05-01 12:13 | 50.04941 | 8.58935 | 367 ft | 3 kts | 160° |
| 2026-05-01 12:13 | 50.04960 | 8.58924 | 364 ft | 3 kts | 165° |
| 2026-05-01 12:14 | 50.04980 | 8.58919 | 363 ft | 3 kts | 179° |
| 2026-05-01 12:14 | 50.05000 | 8.58923 | 362 ft | 3 kts | 204° |
| 2026-05-01 12:14 | 50.05014 | 8.58940 | 362 ft | 3 kts | 244° |
| 2026-05-01 12:14 | 50.05018 | 8.58954 | 362 ft | 0 kts | 250° |
| 2026-05-01 12:17 | 50.05015 | 8.58939 | 362 ft | 4 kts | 250° |
| 2026-05-01 12:18 | 50.05000 | 8.58879 | 362 ft | 7 kts | 250° |
| 2026-05-01 12:18 | 50.04980 | 8.58796 | 364 ft | 9 kts | 249° |
| 2026-05-01 12:18 | 50.04954 | 8.58700 | 364 ft | 9 kts | 233° |
| 2026-05-01 12:18 | 50.04910 | 8.58675 | 363 ft | 6 kts | 174° |
| 2026-05-01 12:19 | 50.04874 | 8.58692 | 369 ft | 5 kts | 160° |
| 2026-05-01 12:19 | 50.04829 | 8.58718 | 370 ft | 9 kts | 159° |
| 2026-05-01 12:19 | 50.04764 | 8.58754 | 371 ft | 9 kts | 165° |
| 2026-05-01 12:19 | 50.04714 | 8.58713 | 374 ft | 9 kts | 234° |
| 2026-05-01 12:20 | 50.04686 | 8.58620 | 371 ft | 10 kts | 249° |
| 2026-05-01 12:20 | 50.04658 | 8.58503 | 371 ft | 12 kts | 249° |
| 2026-05-01 12:20 | 50.04626 | 8.58367 | 372 ft | 14 kts | 250° |
| 2026-05-01 12:20 | 50.04587 | 8.58205 | 372 ft | 18 kts | 249° |
| 2026-05-01 12:21 | 50.04542 | 8.58017 | 371 ft | 16 kts | 250° |
| 2026-05-01 12:21 | 50.04507 | 8.57872 | 367 ft | 15 kts | 250° |
| 2026-05-01 12:21 | 50.04469 | 8.57709 | 372 ft | 17 kts | 250° |
| 2026-05-01 12:21 | 50.04425 | 8.57528 | 366 ft | 20 kts | 249° |
| 2026-05-01 12:22 | 50.04378 | 8.57330 | 368 ft | 19 kts | 249° |
| 2026-05-01 12:22 | 50.04342 | 8.57179 | 364 ft | 13 kts | 250° |
| 2026-05-01 12:22 | 50.04308 | 8.57033 | 367 ft | 16 kts | 248° |
| 2026-05-01 12:22 | 50.04266 | 8.56862 | 366 ft | 18 kts | 249° |
| 2026-05-01 12:23 | 50.04224 | 8.56684 | 365 ft | 18 kts | 249° |
| 2026-05-01 12:23 | 50.04175 | 8.56483 | 362 ft | 21 kts | 249° |
| 2026-05-01 12:23 | 50.04121 | 8.56255 | 361 ft | 24 kts | 250° |
| 2026-05-01 12:23 | 50.04062 | 8.56009 | 357 ft | 23 kts | 249° |
| 2026-05-01 12:24 | 50.04007 | 8.55782 | 357 ft | 21 kts | 249° |
| 2026-05-01 12:24 | 50.03954 | 8.55557 | 352 ft | 22 kts | 250° |
| 2026-05-01 12:24 | 50.03900 | 8.55332 | 356 ft | 23 kts | 248° |
| 2026-05-01 12:24 | 50.03842 | 8.55090 | 352 ft | 25 kts | 250° |
| 2026-05-01 12:25 | 50.03784 | 8.54846 | 352 ft | 25 kts | 249° |
| 2026-05-01 12:25 | 50.03663 | 8.54337 | 352 ft | 24 kts | 250° |
| 2026-05-01 12:25 | 50.03607 | 8.54102 | 354 ft | 22 kts | 249° |
| 2026-05-01 12:26 | 50.03556 | 8.53893 | 347 ft | 20 kts | 249° |
| 2026-05-01 12:26 | 50.03458 | 8.53480 | 338 ft | 20 kts | 250° |
| 2026-05-01 12:26 | 50.03409 | 8.53278 | 340 ft | 20 kts | 249° |
| 2026-05-01 12:27 | 50.03366 | 8.53096 | 337 ft | 19 kts | 249° |
| 2026-05-01 12:27 | 50.03345 | 8.52828 | 335 ft | 10 kts | 339° |
| 2026-05-01 12:28 | 50.03433 | 8.52731 | 334 ft | 7 kts | 253° |
| 2026-05-01 12:28 | 50.03432 | 8.52725 | 335 ft | 0 kts | 250° |
| 2026-05-01 12:28 | 50.03427 | 8.52704 | 336 ft | 10 kts | 250° |
| 2026-05-01 12:29 | 50.03384 | 8.52602 | 336 ft | 9 kts | 199° |
| 2026-05-01 12:29 | 50.03330 | 8.52594 | 338 ft | 0 kts | 180° |
| 2026-05-01 12:31 | 50.03329 | 8.52594 | 338 ft | 1 kts | 180° |
| 2026-05-01 12:31 | 50.03239 | 8.52594 | 338 ft | 42 kts | 180° |
| 2026-05-01 12:31 | 50.02687 | 8.52600 | 338 ft | 114 kts | 179° |
| 2026-05-01 12:31 | 50.01712 | 8.52620 | 405 ft | 162 kts | 178° |
| 2026-05-01 12:32 | 50.00509 | 8.52635 | 928 ft | 182 kts | 175° |
| 2026-05-01 12:32 | 49.97853 | 8.52755 | 2769 ft | 193 kts | 173° |
| 2026-05-01 12:32 | 49.96507 | 8.52863 | 3559 ft | 195 kts | 174° |
| 2026-05-01 12:33 | 49.95160 | 8.52965 | 4377 ft | 195 kts | 174° |
| 2026-05-01 12:33 | 49.93816 | 8.53063 | 5280 ft | 192 kts | 175° |
| 2026-05-01 12:33 | 49.92445 | 8.53161 | 5848 ft | 211 kts | 176° |
| 2026-05-01 12:33 | 49.90882 | 8.53276 | 6340 ft | 233 kts | 175° |
| 2026-05-01 12:34 | 49.89307 | 8.53392 | 7457 ft | 227 kts | 176° |
| 2026-05-01 12:34 | 49.87695 | 8.53501 | 8222 ft | 236 kts | 176° |
| 2026-05-01 12:34 | 49.86054 | 8.53613 | 9152 ft | 237 kts | 176° |
| 2026-05-01 12:34 | 49.84387 | 8.53724 | 9967 ft | 242 kts | 175° |
| 2026-05-01 12:35 | 49.82721 | 8.53838 | 10759 ft | 246 kts | 175° |
| 2026-05-01 12:35 | 49.80965 | 8.53959 | 11519 ft | 250 kts | 175° |
| 2026-05-01 12:35 | 49.79780 | 8.54040 | 12069 ft | 253 kts | 175° |
| 2026-05-01 12:35 | 49.77402 | 8.54072 | 12928 ft | 269 kts | 183° |
| 2026-05-01 12:36 | 49.76115 | 8.53861 | 13244 ft | 282 kts | 183° |
| 2026-05-01 12:36 | 49.74098 | 8.53551 | 13622 ft | 301 kts | 182° |
| 2026-05-01 12:36 | 49.71938 | 8.53240 | 13966 ft | 321 kts | 182° |
| 2026-05-01 12:36 | 49.69656 | 8.52927 | 14404 ft | 336 kts | 182° |
| 2026-05-01 12:37 | 49.67293 | 8.52612 | 14947 ft | 345 kts | 182° |
| 2026-05-01 12:37 | 49.64893 | 8.52299 | 15752 ft | 347 kts | 182° |
| 2026-05-01 12:37 | 49.62474 | 8.51985 | 16425 ft | 352 kts | 182° |
| 2026-05-01 12:37 | 49.60014 | 8.51668 | 17146 ft | 356 kts | 182° |
| 2026-05-01 12:38 | 49.57539 | 8.51349 | 17834 ft | 360 kts | 182° |
| 2026-05-01 12:38 | 49.55031 | 8.51027 | 18531 ft | 363 kts | 182° |
| 2026-05-01 12:38 | 49.52502 | 8.50702 | 19116 ft | 367 kts | 182° |
| 2026-05-01 12:38 | 49.49948 | 8.50375 | 19689 ft | 370 kts | 182° |
| 2026-05-01 12:39 | 49.47360 | 8.50043 | 20260 ft | 374 kts | 182° |
| 2026-05-01 12:39 | 49.44756 | 8.49709 | 20833 ft | 378 kts | 183° |
| 2026-05-01 12:39 | 49.42123 | 8.49373 | 21385 ft | 382 kts | 183° |
| 2026-05-01 12:39 | 49.39495 | 8.49037 | 21924 ft | 385 kts | 182° |
| 2026-05-01 12:40 | 49.36815 | 8.48695 | 22473 ft | 389 kts | 183° |
| 2026-05-01 12:40 | 49.34103 | 8.48349 | 22992 ft | 393 kts | 183° |
| 2026-05-01 12:40 | 49.31371 | 8.47997 | 23513 ft | 397 kts | 183° |
| 2026-05-01 12:40 | 49.28565 | 8.47632 | 23997 ft | 401 kts | 183° |
| 2026-05-01 12:41 | 49.25777 | 8.47269 | 24412 ft | 404 kts | 183° |
| 2026-05-01 12:41 | 49.22966 | 8.46903 | 24852 ft | 407 kts | 183° |
| 2026-05-01 12:41 | 49.20135 | 8.46534 | 25277 ft | 410 kts | 183° |
| 2026-05-01 12:41 | 49.17275 | 8.46163 | 25674 ft | 414 kts | 183° |
| 2026-05-01 12:42 | 49.14399 | 8.45791 | 26080 ft | 417 kts | 184° |
| 2026-05-01 12:42 | 49.11498 | 8.45414 | 26476 ft | 420 kts | 184° |
| 2026-05-01 12:42 | 49.08572 | 8.45036 | 26870 ft | 423 kts | 184° |
| 2026-05-01 12:42 | 49.05684 | 8.44510 | 27221 ft | 427 kts | 191° |
| 2026-05-01 12:43 | 49.02751 | 8.43474 | 27652 ft | 428 kts | 192° |
| 2026-05-01 12:43 | 48.99824 | 8.42465 | 27994 ft | 432 kts | 192° |
| 2026-05-01 12:43 | 48.96883 | 8.41443 | 28408 ft | 434 kts | 192° |
| 2026-05-01 12:43 | 48.93933 | 8.40418 | 28799 ft | 437 kts | 192° |
| 2026-05-01 12:44 | 48.90959 | 8.39386 | 29168 ft | 439 kts | 192° |
| 2026-05-01 12:44 | 48.87982 | 8.38354 | 29558 ft | 441 kts | 192° |
| 2026-05-01 12:44 | 48.81961 | 8.36269 | 30294 ft | 446 kts | 193° |
| 2026-05-01 12:45 | 48.75899 | 8.34092 | 30921 ft | 450 kts | 193° |
| 2026-05-01 12:45 | 48.72886 | 8.32990 | 31234 ft | 451 kts | 193° |
| 2026-05-01 12:45 | 48.69827 | 8.31876 | 31527 ft | 453 kts | 193° |
| 2026-05-01 12:46 | 48.66751 | 8.30758 | 31814 ft | 456 kts | 193° |
| 2026-05-01 12:46 | 48.63662 | 8.29636 | 32110 ft | 458 kts | 193° |
| 2026-05-01 12:46 | 48.60568 | 8.28514 | 32394 ft | 459 kts | 193° |
| 2026-05-01 12:46 | 48.57443 | 8.27383 | 32678 ft | 461 kts | 193° |
| 2026-05-01 12:47 | 48.54315 | 8.26252 | 32949 ft | 463 kts | 193° |
| 2026-05-01 12:47 | 48.51182 | 8.25120 | 33236 ft | 465 kts | 193° |
| 2026-05-01 12:47 | 48.48039 | 8.23973 | 33628 ft | 464 kts | 193° |
| 2026-05-01 12:47 | 48.44907 | 8.22828 | 34017 ft | 463 kts | 193° |
| 2026-05-01 12:48 | 48.41783 | 8.21687 | 34401 ft | 462 kts | 193° |
| 2026-05-01 12:48 | 48.38667 | 8.20551 | 34766 ft | 460 kts | 193° |
| 2026-05-01 12:48 | 48.35570 | 8.19424 | 35092 ft | 459 kts | 193° |
| 2026-05-01 12:48 | 48.32458 | 8.18292 | 35398 ft | 458 kts | 193° |
| 2026-05-01 12:49 | 48.29361 | 8.17167 | 35686 ft | 458 kts | 193° |
| 2026-05-01 12:49 | 48.26268 | 8.16044 | 36016 ft | 456 kts | 194° |
| 2026-05-01 12:49 | 48.23294 | 8.14457 | 36327 ft | 454 kts | 208° |
| 2026-05-01 12:49 | 48.20486 | 8.12332 | 36654 ft | 452 kts | 206° |
| 2026-05-01 12:50 | 48.17653 | 8.10265 | 36887 ft | 452 kts | 206° |
| 2026-05-01 12:50 | 48.14834 | 8.08190 | 37161 ft | 452 kts | 207° |
| 2026-05-01 12:50 | 48.12012 | 8.06109 | 37298 ft | 452 kts | 207° |
| 2026-05-01 12:50 | 48.09194 | 8.04032 | 37290 ft | 450 kts | 207° |
| 2026-05-01 12:51 | 48.03587 | 7.99905 | 37275 ft | 448 kts | 207° |
| 2026-05-01 12:52 | 47.95200 | 7.93749 | 37277 ft | 448 kts | 207° |
| 2026-05-01 12:52 | 47.86808 | 7.87612 | 37278 ft | 447 kts | 206° |
| 2026-05-01 12:53 | 47.78444 | 7.81517 | 37282 ft | 446 kts | 206° |
| 2026-05-01 12:54 | 47.72858 | 7.77459 | 37275 ft | 446 kts | 206° |
| 2026-05-01 12:54 | 47.64503 | 7.71408 | 37286 ft | 445 kts | 206° |
| 2026-05-01 12:55 | 47.56142 | 7.65375 | 37290 ft | 445 kts | 206° |
| 2026-05-01 12:56 | 47.50637 | 7.61414 | 37302 ft | 445 kts | 206° |
| 2026-05-01 12:56 | 47.45077 | 7.57422 | 37288 ft | 444 kts | 206° |
| 2026-05-01 12:57 | 47.39509 | 7.53435 | 37283 ft | 444 kts | 206° |
| 2026-05-01 12:57 | 47.31162 | 7.47474 | 37284 ft | 444 kts | 206° |
| 2026-05-01 12:58 | 47.25597 | 7.43511 | 37289 ft | 445 kts | 206° |
| 2026-05-01 12:59 | 47.17334 | 7.37322 | 37247 ft | 443 kts | 218° |
| 2026-05-01 12:59 | 47.15145 | 7.34179 | 37280 ft | 441 kts | 231° |
| 2026-05-01 12:59 | 47.11213 | 7.27196 | 37255 ft | 444 kts | 231° |
| 2026-05-01 13:00 | 47.05408 | 7.16615 | 37268 ft | 443 kts | 231° |
| 2026-05-01 13:01 | 46.99635 | 7.06042 | 37291 ft | 442 kts | 231° |
| 2026-05-01 13:02 | 46.93864 | 6.95513 | 37297 ft | 441 kts | 231° |
| 2026-05-01 13:07 | 46.51868 | 6.20219 | 37267 ft | 436 kts | 231° |
| 2026-05-01 13:08 | 46.48036 | 6.13451 | 37266 ft | 435 kts | 231° |
| 2026-05-01 13:08 | 46.44185 | 6.06666 | 37257 ft | 435 kts | 231° |
| 2026-05-01 13:09 | 46.40338 | 5.99904 | 37261 ft | 435 kts | 231° |
| 2026-05-01 13:09 | 46.36489 | 5.93155 | 37269 ft | 434 kts | 231° |
| 2026-05-01 13:10 | 46.32645 | 5.86431 | 37265 ft | 433 kts | 231° |
| 2026-05-01 13:10 | 46.28802 | 5.79727 | 37251 ft | 433 kts | 231° |
| 2026-05-01 13:11 | 46.24959 | 5.73039 | 37259 ft | 433 kts | 231° |
| 2026-05-01 13:11 | 46.21111 | 5.66355 | 37254 ft | 432 kts | 231° |
| 2026-05-01 13:12 | 46.17261 | 5.59681 | 37250 ft | 432 kts | 231° |
| 2026-05-01 13:12 | 46.13641 | 5.52825 | 37249 ft | 429 kts | 237° |
| 2026-05-01 13:13 | 46.10280 | 5.45696 | 37254 ft | 430 kts | 237° |
| 2026-05-01 13:13 | 46.06900 | 5.38661 | 37242 ft | 429 kts | 237° |
| 2026-05-01 13:14 | 46.03475 | 5.31564 | 37246 ft | 429 kts | 237° |
| 2026-05-01 13:14 | 46.00087 | 5.24564 | 37246 ft | 429 kts | 236° |
| 2026-05-01 13:15 | 45.96681 | 5.17543 | 37238 ft | 428 kts | 236° |
| 2026-05-01 13:15 | 45.93266 | 5.10522 | 37235 ft | 428 kts | 236° |
| 2026-05-01 13:16 | 45.89849 | 5.03514 | 37235 ft | 428 kts | 236° |
| 2026-05-01 13:16 | 45.86432 | 4.96525 | 37237 ft | 428 kts | 236° |
| 2026-05-01 13:17 | 45.80145 | 4.83709 | 37241 ft | 427 kts | 236° |
| 2026-05-01 13:18 | 45.75033 | 4.73330 | 37234 ft | 427 kts | 236° |
| 2026-05-01 13:18 | 45.71604 | 4.66390 | 37233 ft | 427 kts | 236° |
| 2026-05-01 13:19 | 45.68172 | 4.59460 | 37233 ft | 427 kts | 236° |
| 2026-05-01 13:20 | 45.63014 | 4.49077 | 37232 ft | 427 kts | 236° |
| 2026-05-01 13:20 | 45.59571 | 4.42167 | 37238 ft | 427 kts | 236° |
| 2026-05-01 13:21 | 45.54407 | 4.31832 | 37237 ft | 426 kts | 236° |
| 2026-05-01 13:21 | 45.50962 | 4.24954 | 37238 ft | 426 kts | 236° |
| 2026-05-01 13:22 | 45.47509 | 4.18069 | 37235 ft | 426 kts | 236° |
| 2026-05-01 13:22 | 45.44053 | 4.11197 | 37237 ft | 427 kts | 236° |
| 2026-05-01 13:23 | 45.40591 | 4.04326 | 37234 ft | 427 kts | 236° |
| 2026-05-01 13:23 | 45.37127 | 3.97468 | 37237 ft | 427 kts | 235° |
| 2026-05-01 13:24 | 45.33658 | 3.90617 | 37247 ft | 427 kts | 235° |
| 2026-05-01 13:25 | 45.28445 | 3.80351 | 37271 ft | 427 kts | 235° |
| 2026-05-01 13:25 | 45.24994 | 3.73475 | 37274 ft | 428 kts | 236° |
| 2026-05-01 13:26 | 45.21611 | 3.66582 | 37275 ft | 428 kts | 236° |
| 2026-05-01 13:26 | 45.18173 | 3.59615 | 37279 ft | 429 kts | 236° |
| 2026-05-01 13:27 | 45.14772 | 3.52738 | 37278 ft | 429 kts | 236° |
| 2026-05-01 13:27 | 45.09604 | 3.42323 | 37266 ft | 429 kts | 236° |
| 2026-05-01 13:28 | 45.04445 | 3.31960 | 37255 ft | 429 kts | 235° |
| 2026-05-01 13:29 | 44.97576 | 3.18225 | 37257 ft | 429 kts | 235° |
| 2026-05-01 13:31 | 44.87223 | 2.97641 | 37274 ft | 428 kts | 235° |
| 2026-05-01 13:32 | 44.79033 | 2.80142 | 37276 ft | 428 kts | 237° |
| 2026-05-01 13:33 | 44.70917 | 2.62621 | 37273 ft | 428 kts | 237° |
| 2026-05-01 13:34 | 44.64406 | 2.48642 | 37259 ft | 428 kts | 236° |
| 2026-05-01 13:35 | 44.59503 | 2.38160 | 37272 ft | 428 kts | 236° |
| 2026-05-01 13:36 | 44.54585 | 2.27684 | 37253 ft | 429 kts | 236° |
| 2026-05-01 13:36 | 44.49655 | 2.17220 | 37259 ft | 429 kts | 236° |
| 2026-05-01 13:37 | 44.46362 | 2.10253 | 37246 ft | 429 kts | 236° |
| 2026-05-01 13:37 | 44.43082 | 2.03328 | 37238 ft | 429 kts | 236° |
| 2026-05-01 13:38 | 44.38124 | 1.92893 | 37221 ft | 429 kts | 236° |
| 2026-05-01 13:39 | 44.34815 | 1.85950 | 37218 ft | 430 kts | 236° |
| 2026-05-01 13:39 | 44.31501 | 1.79009 | 37216 ft | 429 kts | 236° |
| 2026-05-01 13:40 | 44.28240 | 1.72014 | 37219 ft | 430 kts | 237° |
| 2026-05-01 13:40 | 44.25020 | 1.64991 | 37217 ft | 430 kts | 237° |
| 2026-05-01 13:41 | 44.21792 | 1.57980 | 37210 ft | 430 kts | 237° |
| 2026-05-01 13:41 | 44.18562 | 1.50980 | 37208 ft | 430 kts | 237° |
| 2026-05-01 13:42 | 44.15319 | 1.43973 | 37216 ft | 430 kts | 236° |
| 2026-05-01 13:42 | 44.12072 | 1.36971 | 37206 ft | 430 kts | 236° |
| 2026-05-01 13:43 | 44.08822 | 1.29982 | 37204 ft | 430 kts | 236° |
| 2026-05-01 13:43 | 44.05568 | 1.22999 | 37194 ft | 430 kts | 237° |
| 2026-05-01 13:44 | 44.02311 | 1.16027 | 37200 ft | 430 kts | 237° |
| 2026-05-01 13:44 | 43.99072 | 1.09109 | 37193 ft | 430 kts | 237° |
| 2026-05-01 13:45 | 43.95789 | 1.02115 | 37182 ft | 430 kts | 236° |
| 2026-05-01 13:45 | 43.92541 | 0.95212 | 37175 ft | 429 kts | 237° |
| 2026-05-01 13:46 | 43.89229 | 0.88269 | 37182 ft | 429 kts | 232° |
| 2026-05-01 13:46 | 43.87165 | 0.85382 | 37180 ft | 427 kts | 221° |
| 2026-05-01 13:46 | 43.84958 | 0.82609 | 37174 ft | 429 kts | 223° |
| 2026-05-01 13:47 | 43.80532 | 0.77062 | 37183 ft | 429 kts | 222° |
| 2026-05-01 13:47 | 43.76076 | 0.71553 | 37177 ft | 430 kts | 222° |
| 2026-05-01 13:48 | 43.71615 | 0.66061 | 37179 ft | 429 kts | 222° |
| 2026-05-01 13:48 | 43.67149 | 0.60572 | 37171 ft | 429 kts | 222° |
| 2026-05-01 13:49 | 43.62690 | 0.55106 | 37170 ft | 429 kts | 222° |
| 2026-05-01 13:49 | 43.58217 | 0.49632 | 37177 ft | 429 kts | 222° |
| 2026-05-01 13:50 | 43.53745 | 0.44172 | 37175 ft | 429 kts | 222° |
| 2026-05-01 13:50 | 43.49276 | 0.38725 | 37182 ft | 429 kts | 222° |
| 2026-05-01 13:51 | 43.44801 | 0.33283 | 37183 ft | 429 kts | 222° |
| 2026-05-01 13:51 | 43.40320 | 0.27847 | 37185 ft | 429 kts | 222° |
| 2026-05-01 13:52 | 43.35842 | 0.22426 | 37185 ft | 429 kts | 222° |
| 2026-05-01 13:52 | 43.31354 | 0.17004 | 37180 ft | 429 kts | 222° |
| 2026-05-01 13:53 | 43.26866 | 0.11593 | 37179 ft | 430 kts | 222° |
| 2026-05-01 13:53 | 43.20131 | 0.03495 | 37194 ft | 430 kts | 222° |
| 2026-05-01 13:54 | 43.15634 | -0.01899 | 37168 ft | 429 kts | 222° |
| 2026-05-01 13:54 | 43.11133 | -0.07287 | 37193 ft | 430 kts | 222° |
| 2026-05-01 13:55 | 43.06620 | -0.12679 | 37190 ft | 430 kts | 222° |
| 2026-05-01 13:55 | 43.02107 | -0.18058 | 37179 ft | 430 kts | 222° |
| 2026-05-01 13:56 | 42.97598 | -0.23422 | 37190 ft | 430 kts | 222° |
| 2026-05-01 13:56 | 42.93082 | -0.28783 | 37220 ft | 431 kts | 222° |
| 2026-05-01 13:57 | 42.89322 | -0.33240 | 37182 ft | 430 kts | 222° |
| 2026-05-01 13:57 | 42.84046 | -0.39482 | 37196 ft | 430 kts | 221° |
| 2026-05-01 13:58 | 42.79246 | -0.44168 | 37189 ft | 430 kts | 203° |
| 2026-05-01 13:58 | 42.73678 | -0.47209 | 37171 ft | 432 kts | 203° |
| 2026-05-01 13:59 | 42.68082 | -0.50206 | 37197 ft | 433 kts | 203° |
| 2026-05-01 13:59 | 42.62464 | -0.53164 | 37194 ft | 433 kts | 202° |
| 2026-05-01 14:00 | 42.56848 | -0.56109 | 37189 ft | 433 kts | 202° |
| 2026-05-01 14:00 | 42.51239 | -0.59046 | 37184 ft | 432 kts | 202° |
| 2026-05-01 14:01 | 42.45625 | -0.61979 | 37186 ft | 432 kts | 202° |
| 2026-05-01 14:01 | 42.40014 | -0.64905 | 37181 ft | 432 kts | 202° |
| 2026-05-01 14:02 | 42.34398 | -0.67827 | 37175 ft | 432 kts | 203° |
| 2026-05-01 14:02 | 42.28790 | -0.70740 | 37174 ft | 432 kts | 203° |
| 2026-05-01 14:03 | 42.23170 | -0.73654 | 37178 ft | 433 kts | 202° |
| 2026-05-01 14:03 | 42.17538 | -0.76568 | 37164 ft | 434 kts | 202° |
| 2026-05-01 14:04 | 42.11900 | -0.79480 | 37175 ft | 435 kts | 202° |
| 2026-05-01 14:04 | 42.07209 | -0.81899 | 37164 ft | 435 kts | 202° |
| 2026-05-01 14:05 | 42.01549 | -0.84812 | 37165 ft | 435 kts | 202° |
| 2026-05-01 14:05 | 41.95895 | -0.87716 | 37171 ft | 436 kts | 202° |
| 2026-05-01 14:06 | 41.90222 | -0.90624 | 37156 ft | 436 kts | 202° |
| 2026-05-01 14:06 | 41.84549 | -0.93526 | 37157 ft | 437 kts | 202° |
| 2026-05-01 14:07 | 41.78866 | -0.96429 | 37158 ft | 437 kts | 203° |
| 2026-05-01 14:08 | 41.70333 | -1.00777 | 37153 ft | 438 kts | 203° |
| 2026-05-01 14:08 | 41.64782 | -1.04068 | 37154 ft | 433 kts | 217° |
| 2026-05-01 14:09 | 41.59798 | -1.08627 | 37156 ft | 435 kts | 216° |
| 2026-05-01 14:09 | 41.54802 | -1.13192 | 37155 ft | 435 kts | 217° |
| 2026-05-01 14:10 | 41.49803 | -1.17772 | 37150 ft | 436 kts | 217° |
| 2026-05-01 14:10 | 41.44805 | -1.22344 | 37158 ft | 436 kts | 217° |
| 2026-05-01 14:11 | 41.39801 | -1.26914 | 37156 ft | 436 kts | 217° |
| 2026-05-01 14:11 | 41.32328 | -1.33720 | 37158 ft | 436 kts | 217° |
| 2026-05-01 14:12 | 41.27315 | -1.38279 | 37153 ft | 437 kts | 217° |
| 2026-05-01 14:12 | 41.22299 | -1.42836 | 37161 ft | 437 kts | 217° |
| 2026-05-01 14:13 | 41.17283 | -1.47382 | 37169 ft | 436 kts | 217° |
| 2026-05-01 14:13 | 41.12267 | -1.51918 | 37158 ft | 436 kts | 217° |
| 2026-05-01 14:14 | 41.07249 | -1.56448 | 37163 ft | 436 kts | 217° |
| 2026-05-01 14:14 | 41.02238 | -1.60963 | 37164 ft | 436 kts | 217° |
| 2026-05-01 14:15 | 40.97219 | -1.65477 | 37157 ft | 435 kts | 217° |
| 2026-05-01 14:15 | 40.92210 | -1.69974 | 37168 ft | 435 kts | 217° |
| 2026-05-01 14:16 | 40.87206 | -1.74458 | 37180 ft | 435 kts | 217° |
| 2026-05-01 14:16 | 40.82224 | -1.78912 | 37165 ft | 434 kts | 217° |
| 2026-05-01 14:17 | 40.77222 | -1.83378 | 37179 ft | 434 kts | 217° |
| 2026-05-01 14:17 | 40.72226 | -1.87826 | 37182 ft | 433 kts | 217° |
| 2026-05-01 14:18 | 40.67230 | -1.92266 | 37176 ft | 432 kts | 217° |
| 2026-05-01 14:18 | 40.63050 | -1.95975 | 37182 ft | 432 kts | 217° |
| 2026-05-01 14:19 | 40.57255 | -2.01106 | 37188 ft | 432 kts | 217° |
| 2026-05-01 14:19 | 40.52269 | -2.05514 | 37182 ft | 431 kts | 216° |
| 2026-05-01 14:20 | 40.44794 | -2.12104 | 37185 ft | 431 kts | 217° |
| 2026-05-01 14:21 | 40.39820 | -2.16480 | 37179 ft | 431 kts | 216° |
| 2026-05-01 14:21 | 40.34841 | -2.20855 | 37181 ft | 431 kts | 216° |
| 2026-05-01 14:22 | 40.27376 | -2.27397 | 37180 ft | 430 kts | 216° |
| 2026-05-01 14:22 | 40.22400 | -2.31749 | 37177 ft | 430 kts | 216° |
| 2026-05-01 14:23 | 40.17450 | -2.36069 | 37173 ft | 430 kts | 217° |
| 2026-05-01 14:23 | 40.12471 | -2.40409 | 37171 ft | 430 kts | 216° |
| 2026-05-01 14:24 | 40.07499 | -2.44734 | 37179 ft | 430 kts | 217° |
| 2026-05-01 14:24 | 40.02521 | -2.49055 | 37167 ft | 430 kts | 217° |
| 2026-05-01 14:25 | 39.97536 | -2.53376 | 37174 ft | 430 kts | 217° |
| 2026-05-01 14:25 | 39.92553 | -2.57687 | 37171 ft | 429 kts | 217° |
| 2026-05-01 14:26 | 39.85088 | -2.64131 | 37164 ft | 429 kts | 217° |
| 2026-05-01 14:27 | 39.80117 | -2.68413 | 37165 ft | 429 kts | 217° |
| 2026-05-01 14:27 | 39.75141 | -2.72691 | 37160 ft | 429 kts | 217° |
| 2026-05-01 14:28 | 39.67687 | -2.79089 | 37149 ft | 428 kts | 217° |
| 2026-05-01 14:28 | 39.62706 | -2.83353 | 37147 ft | 428 kts | 217° |
| 2026-05-01 14:29 | 39.57734 | -2.87603 | 37143 ft | 428 kts | 217° |
| 2026-05-01 14:30 | 39.47796 | -2.96078 | 37132 ft | 428 kts | 217° |
| 2026-05-01 14:31 | 39.40314 | -3.02385 | 37119 ft | 430 kts | 212° |
| 2026-05-01 14:31 | 39.34748 | -3.05260 | 37103 ft | 435 kts | 206° |
| 2026-05-01 14:32 | 39.29094 | -3.08047 | 37121 ft | 436 kts | 206° |
| 2026-05-01 14:32 | 39.23423 | -3.10806 | 37123 ft | 436 kts | 206° |
| 2026-05-01 14:33 | 39.17751 | -3.13558 | 37117 ft | 436 kts | 206° |
| 2026-05-01 14:33 | 39.12066 | -3.16311 | 37121 ft | 436 kts | 206° |
| 2026-05-01 14:34 | 39.06381 | -3.19060 | 37120 ft | 437 kts | 206° |
| 2026-05-01 14:34 | 39.00697 | -3.21804 | 37122 ft | 437 kts | 206° |
| 2026-05-01 14:35 | 38.95005 | -3.24545 | 37117 ft | 437 kts | 206° |
| 2026-05-01 14:35 | 38.89303 | -3.27287 | 37115 ft | 437 kts | 206° |
| 2026-05-01 14:36 | 38.83599 | -3.30025 | 37118 ft | 438 kts | 207° |
| 2026-05-01 14:36 | 38.77894 | -3.32759 | 37114 ft | 438 kts | 207° |
| 2026-05-01 14:37 | 38.72183 | -3.35491 | 37115 ft | 438 kts | 207° |
| 2026-05-01 14:37 | 38.66473 | -3.38218 | 37114 ft | 438 kts | 207° |
| 2026-05-01 14:38 | 38.60750 | -3.40946 | 37117 ft | 439 kts | 207° |
| 2026-05-01 14:38 | 38.55029 | -3.43669 | 37115 ft | 439 kts | 207° |
| 2026-05-01 14:39 | 38.49311 | -3.46386 | 37121 ft | 439 kts | 208° |
| 2026-05-01 14:39 | 38.43589 | -3.49101 | 37125 ft | 439 kts | 208° |
| 2026-05-01 14:40 | 38.37899 | -3.51794 | 37094 ft | 439 kts | 208° |
| 2026-05-01 14:40 | 38.32156 | -3.54509 | 37109 ft | 439 kts | 208° |
| 2026-05-01 14:41 | 38.26438 | -3.57208 | 37103 ft | 438 kts | 208° |
| 2026-05-01 14:41 | 38.20721 | -3.59902 | 37105 ft | 438 kts | 208° |
| 2026-05-01 14:42 | 38.15037 | -3.62655 | 37105 ft | 433 kts | 213° |
| 2026-05-01 14:42 | 38.09566 | -3.65829 | 37098 ft | 433 kts | 212° |
| 2026-05-01 14:43 | 38.04066 | -3.68948 | 37114 ft | 433 kts | 212° |
| 2026-05-01 14:43 | 37.98575 | -3.72047 | 37125 ft | 432 kts | 212° |
| 2026-05-01 14:44 | 37.93082 | -3.75142 | 37109 ft | 431 kts | 212° |
| 2026-05-01 14:44 | 37.84863 | -3.79762 | 37113 ft | 430 kts | 213° |
| 2026-05-01 14:45 | 37.76667 | -3.84357 | 37119 ft | 429 kts | 213° |
| 2026-05-01 14:46 | 37.71212 | -3.87410 | 37111 ft | 428 kts | 213° |
| 2026-05-01 14:46 | 37.63063 | -3.91961 | 37123 ft | 426 kts | 213° |
| 2026-05-01 14:47 | 37.57642 | -3.94982 | 37114 ft | 425 kts | 213° |
| 2026-05-01 14:48 | 37.49530 | -3.99495 | 37122 ft | 425 kts | 213° |
| 2026-05-01 14:48 | 37.41441 | -4.03983 | 37130 ft | 423 kts | 213° |
| 2026-05-01 14:49 | 37.30690 | -4.09933 | 37132 ft | 422 kts | 213° |
| 2026-05-01 14:50 | 37.20024 | -4.15817 | 37143 ft | 419 kts | 213° |
| 2026-05-01 14:51 | 37.12015 | -4.20223 | 37147 ft | 418 kts | 212° |
| 2026-05-01 14:52 | 37.04023 | -4.24610 | 37149 ft | 418 kts | 212° |
| 2026-05-01 14:53 | 36.96041 | -4.28981 | 37160 ft | 417 kts | 212° |
| 2026-05-01 14:53 | 36.90722 | -4.31889 | 37165 ft | 417 kts | 212° |
| 2026-05-01 14:54 | 36.86265 | -4.34323 | 37160 ft | 418 kts | 212° |
| 2026-05-01 14:54 | 36.81032 | -4.37309 | 37165 ft | 409 kts | 220° |
| 2026-05-01 14:55 | 36.76260 | -4.41087 | 37170 ft | 407 kts | 220° |
| 2026-05-01 14:55 | 36.71477 | -4.44882 | 37178 ft | 407 kts | 220° |
| 2026-05-01 14:56 | 36.66703 | -4.48672 | 37179 ft | 407 kts | 220° |
| 2026-05-01 14:56 | 36.61934 | -4.52455 | 37177 ft | 406 kts | 220° |
| 2026-05-01 14:57 | 36.57169 | -4.56228 | 37179 ft | 406 kts | 220° |
| 2026-05-01 14:57 | 36.50018 | -4.61879 | 37173 ft | 406 kts | 220° |
| 2026-05-01 14:58 | 36.45244 | -4.65645 | 37166 ft | 406 kts | 220° |
| 2026-05-01 14:58 | 36.40475 | -4.69402 | 37161 ft | 406 kts | 220° |
| 2026-05-01 14:59 | 36.35700 | -4.73157 | 37156 ft | 406 kts | 220° |
| 2026-05-01 14:59 | 36.30954 | -4.76885 | 37156 ft | 407 kts | 219° |
| 2026-05-01 15:00 | 36.23777 | -4.82511 | 37152 ft | 407 kts | 219° |
| 2026-05-01 15:01 | 36.18981 | -4.86264 | 37146 ft | 407 kts | 219° |
| 2026-05-01 15:01 | 36.14195 | -4.90026 | 37151 ft | 408 kts | 219° |
| 2026-05-01 15:02 | 36.09413 | -4.93814 | 37147 ft | 408 kts | 219° |
| 2026-05-01 15:02 | 36.04629 | -4.97595 | 37148 ft | 409 kts | 219° |
| 2026-05-01 15:03 | 35.99838 | -5.01376 | 37147 ft | 409 kts | 219° |
| 2026-05-01 15:03 | 35.95036 | -5.05160 | 37143 ft | 409 kts | 219° |
| 2026-05-01 15:04 | 35.90231 | -5.08942 | 37155 ft | 409 kts | 219° |
| 2026-05-01 15:04 | 35.85426 | -5.12718 | 37148 ft | 410 kts | 219° |
| 2026-05-01 15:05 | 35.80557 | -5.16396 | 37153 ft | 411 kts | 218° |
| 2026-05-01 15:05 | 35.75672 | -5.20039 | 37146 ft | 411 kts | 218° |
| 2026-05-01 15:06 | 35.70780 | -5.23688 | 37133 ft | 411 kts | 218° |
| 2026-05-01 15:06 | 35.65890 | -5.27329 | 37127 ft | 411 kts | 217° |
| 2026-05-01 15:07 | 35.60996 | -5.30969 | 37126 ft | 411 kts | 217° |
| 2026-05-01 15:07 | 35.56394 | -5.35023 | 37126 ft | 407 kts | 222° |
| 2026-05-01 15:08 | 35.51817 | -5.39111 | 37132 ft | 407 kts | 221° |
| 2026-05-01 15:08 | 35.47222 | -5.43180 | 37129 ft | 407 kts | 221° |
| 2026-05-01 15:09 | 35.42621 | -5.47244 | 37125 ft | 408 kts | 221° |
| 2026-05-01 15:09 | 35.38019 | -5.51304 | 37138 ft | 408 kts | 221° |
| 2026-05-01 15:10 | 35.33412 | -5.55363 | 37117 ft | 408 kts | 221° |
| 2026-05-01 15:10 | 35.26501 | -5.61439 | 37115 ft | 408 kts | 221° |
| 2026-05-01 15:11 | 35.19582 | -5.67509 | 37112 ft | 407 kts | 221° |
| 2026-05-01 15:12 | 35.14969 | -5.71549 | 37109 ft | 408 kts | 221° |
| 2026-05-01 15:12 | 35.08039 | -5.77607 | 37124 ft | 409 kts | 221° |
| 2026-05-01 15:14 | 34.96474 | -5.87690 | 37101 ft | 409 kts | 221° |
| 2026-05-01 15:14 | 34.89632 | -5.93801 | 37119 ft | 406 kts | 225° |
| 2026-05-01 15:15 | 34.80874 | -6.02534 | 37100 ft | 407 kts | 224° |
| 2026-05-01 15:16 | 34.72074 | -6.11217 | 37106 ft | 408 kts | 224° |
| 2026-05-01 15:17 | 34.67811 | -6.15413 | 36955 ft | 382 kts | 224° |
| 2026-05-01 15:18 | 34.61668 | -6.21451 | 35440 ft | 376 kts | 224° |
| 2026-05-01 15:18 | 34.59640 | -6.23442 | 34962 ft | 374 kts | 224° |
| 2026-05-01 15:19 | 34.53616 | -6.29350 | 33488 ft | 369 kts | 224° |
| 2026-05-01 15:19 | 34.49483 | -6.33003 | 32484 ft | 374 kts | 209° |
| 2026-05-01 15:19 | 34.46987 | -6.33992 | 32050 ft | 376 kts | 203° |
| 2026-05-01 15:20 | 34.42046 | -6.35832 | 31251 ft | 369 kts | 203° |
| 2026-05-01 15:20 | 34.39585 | -6.36718 | 30831 ft | 367 kts | 203° |
| 2026-05-01 15:20 | 34.37135 | -6.37589 | 30417 ft | 366 kts | 203° |
| 2026-05-01 15:21 | 34.34700 | -6.38448 | 29962 ft | 364 kts | 202° |
| 2026-05-01 15:21 | 34.32302 | -6.39291 | 29504 ft | 362 kts | 202° |
| 2026-05-01 15:21 | 34.29863 | -6.40147 | 29081 ft | 359 kts | 202° |
| 2026-05-01 15:21 | 34.27470 | -6.40985 | 28696 ft | 356 kts | 202° |
| 2026-05-01 15:22 | 34.22756 | -6.42637 | 27929 ft | 350 kts | 202° |
| 2026-05-01 15:22 | 34.20474 | -6.43435 | 27762 ft | 341 kts | 202° |
| 2026-05-01 15:22 | 34.18187 | -6.44235 | 27627 ft | 340 kts | 202° |
| 2026-05-01 15:23 | 34.15863 | -6.45049 | 27429 ft | 355 kts | 202° |
| 2026-05-01 15:23 | 34.13430 | -6.45899 | 27216 ft | 371 kts | 202° |
| 2026-05-01 15:23 | 34.10936 | -6.46769 | 26993 ft | 387 kts | 202° |
| 2026-05-01 15:23 | 34.08316 | -6.47683 | 26778 ft | 396 kts | 201° |
| 2026-05-01 15:24 | 34.05649 | -6.48613 | 26423 ft | 400 kts | 201° |
| 2026-05-01 15:24 | 34.02981 | -6.49542 | 25929 ft | 398 kts | 201° |
| 2026-05-01 15:24 | 34.00323 | -6.50467 | 25421 ft | 396 kts | 201° |
| 2026-05-01 15:24 | 33.97750 | -6.51577 | 24830 ft | 389 kts | 213° |
| 2026-05-01 15:25 | 33.95614 | -6.53498 | 24298 ft | 380 kts | 227° |
| 2026-05-01 15:25 | 33.93684 | -6.55660 | 23876 ft | 377 kts | 227° |
| 2026-05-01 15:25 | 33.91784 | -6.57820 | 23377 ft | 375 kts | 227° |
| 2026-05-01 15:25 | 33.89902 | -6.59988 | 22850 ft | 373 kts | 227° |
| 2026-05-01 15:26 | 33.88048 | -6.62142 | 22385 ft | 369 kts | 227° |
| 2026-05-01 15:26 | 33.86210 | -6.64288 | 21942 ft | 366 kts | 227° |
| 2026-05-01 15:26 | 33.84392 | -6.66414 | 21499 ft | 363 kts | 227° |
| 2026-05-01 15:26 | 33.82589 | -6.68522 | 21073 ft | 360 kts | 227° |
| 2026-05-01 15:27 | 33.80796 | -6.70619 | 20657 ft | 358 kts | 227° |
| 2026-05-01 15:27 | 33.79019 | -6.72696 | 20236 ft | 356 kts | 226° |
| 2026-05-01 15:27 | 33.77251 | -6.74763 | 19828 ft | 353 kts | 227° |
| 2026-05-01 15:28 | 33.73753 | -6.78844 | 19030 ft | 349 kts | 226° |
| 2026-05-01 15:28 | 33.72010 | -6.80876 | 18633 ft | 347 kts | 226° |
| 2026-05-01 15:28 | 33.70280 | -6.82892 | 18218 ft | 345 kts | 226° |
| 2026-05-01 15:29 | 33.66857 | -6.86878 | 17379 ft | 340 kts | 226° |
| 2026-05-01 15:29 | 33.65089 | -6.88767 | 16857 ft | 343 kts | 216° |
| 2026-05-01 15:29 | 33.60690 | -6.90891 | 16069 ft | 342 kts | 202° |
| 2026-05-01 15:30 | 33.56195 | -6.92725 | 15304 ft | 337 kts | 201° |
| 2026-05-01 15:31 | 33.47423 | -6.96208 | 13789 ft | 330 kts | 200° |
| 2026-05-01 15:31 | 33.43070 | -6.97925 | 12989 ft | 325 kts | 200° |
| 2026-05-01 15:32 | 33.38838 | -6.99593 | 12251 ft | 319 kts | 200° |
| 2026-05-01 15:32 | 33.34658 | -7.01239 | 11521 ft | 314 kts | 200° |
| 2026-05-01 15:33 | 33.28515 | -7.03656 | 10570 ft | 303 kts | 199° |
| 2026-05-01 15:34 | 33.22763 | -7.05916 | 10137 ft | 276 kts | 199° |